sensor_id;sensor_type;location;lat;lon;timestamp;pressure;altitude;pressure_sealevel;temperature;humidity
43071;BME280;36278;47.952;21.714;2023-05-07T00:01:32;100300.38;;;15.14;100.00
43071;BME280;36278;47.952;21.714;2023-05-07T00:03:58;100300.25;;;15.16;100.00
43071;BME280;36278;47.952;21.714;2023-05-07T00:06:23;100306.97;;;15.20;100.00
43071;BME280;36278;47.952;21.714;2023-05-07T00:08:49;100310.19;;;15.24;100.00
43071;BME280;36278;47.952;21.714;2023-05-07T00:11:14;100307.91;;;15.29;100.00
43071;BME280;36278;47.952;21.714;2023-05-07T00:13:40;100312.13;;;15.31;100.00
43071;BME280;36278;47.952;21.714;2023-05-07T00:16:05;100310.31;;;15.32;100.00
43071;BME280;36278;47.952;21.714;2023-05-07T00:18:31;100307.63;;;15.32;100.00
43071;BME280;36278;47.952;21.714;2023-05-07T00:20:56;100306.22;;;15.28;100.00
43071;BME280;36278;47.952;21.714;2023-05-07T00:23:22;100306.53;;;15.25;100.00
43071;BME280;36278;47.952;21.714;2023-05-07T00:25:48;100305.97;;;15.21;100.00
43071;BME280;36278;47.952;21.714;2023-05-07T00:28:13;100308.66;;;15.21;100.00
43071;BME280;36278;47.952;21.714;2023-05-07T00:30:39;100306.97;;;15.20;100.00
43071;BME280;36278;47.952;21.714;2023-05-07T00:33:04;100318.88;;;15.26;100.00
43071;BME280;36278;47.952;21.714;2023-05-07T00:35:30;100314.53;;;15.25;100.00
43071;BME280;36278;47.952;21.714;2023-05-07T00:37:56;100315.22;;;15.27;100.00
43071;BME280;36278;47.952;21.714;2023-05-07T00:40:21;100319.88;;;15.25;100.00
43071;BME280;36278;47.952;21.714;2023-05-07T00:42:47;100321.00;;;15.22;100.00
43071;BME280;36278;47.952;21.714;2023-05-07T00:45:14;100316.38;;;15.24;100.00
43071;BME280;36278;47.952;21.714;2023-05-07T00:47:40;100318.88;;;15.26;100.00
43071;BME280;36278;47.952;21.714;2023-05-07T00:50:06;100318.88;;;15.26;100.00
43071;BME280;36278;47.952;21.714;2023-05-07T00:52:33;100315.22;;;15.27;100.00
43071;BME280;36278;47.952;21.714;2023-05-07T00:55:04;100318.88;;;15.26;100.00
43071;BME280;36278;47.952;21.714;2023-05-07T00:57:35;100316.38;;;15.24;100.00
43071;BME280;36278;47.952;21.714;2023-05-07T01:00:03;100316.25;;;15.16;100.00
43071;BME280;36278;47.952;21.714;2023-05-07T01:02:29;100321.72;;;15.14;100.00
43071;BME280;36278;47.952;21.714;2023-05-07T01:04:55;100320.03;;;15.13;100.00
43071;BME280;36278;47.952;21.714;2023-05-07T01:07:22;100316.38;;;15.14;100.00
43071;BME280;36278;47.952;21.714;2023-05-07T01:09:48;100319.91;;;15.15;100.00
43071;BME280;36278;47.952;21.714;2023-05-07T01:12:14;100320.88;;;15.14;100.00
43071;BME280;36278;47.952;21.714;2023-05-07T01:14:41;100321.72;;;15.14;100.00
43071;BME280;36278;47.952;21.714;2023-05-07T01:17:06;100328.34;;;15.10;100.00
43071;BME280;36278;47.952;21.714;2023-05-07T01:19:33;100319.66;;;15.08;100.00
43071;BME280;36278;47.952;21.714;2023-05-07T01:22:08;100332.38;;;15.14;100.00
43071;BME280;36278;47.952;21.714;2023-05-07T01:24:36;100330.16;;;15.20;100.00
43071;BME280;36278;47.952;21.714;2023-05-07T01:27:02;100336.47;;;15.19;100.00
43071;BME280;36278;47.952;21.714;2023-05-07T01:29:28;100328.47;;;15.19;100.00
43071;BME280;36278;47.952;21.714;2023-05-07T01:31:54;100326.78;;;15.18;100.00
43071;BME280;36278;47.952;21.714;2023-05-07T01:34:21;100321.19;;;15.11;100.00
43071;BME280;36278;47.952;21.714;2023-05-07T01:36:47;100330.44;;;15.17;100.00
43071;BME280;36278;47.952;21.714;2023-05-07T01:39:14;100322.88;;;15.12;100.00
43071;BME280;36278;47.952;21.714;2023-05-07T01:41:42;100322.31;;;15.08;100.00
43071;BME280;36278;47.952;21.714;2023-05-07T01:44:09;100322.03;;;15.11;100.00
43071;BME280;36278;47.952;21.714;2023-05-07T01:46:37;100327.06;;;15.14;100.00
43071;BME280;36278;47.952;21.714;2023-05-07T01:49:03;100316.38;;;15.14;100.00
43071;BME280;36278;47.952;21.714;2023-05-07T01:51:29;100320.59;;;15.17;100.00
43071;BME280;36278;47.952;21.714;2023-05-07T01:53:55;100311.19;;;15.13;100.00
43071;BME280;36278;47.952;21.714;2023-05-07T01:56:20;100318.38;;;15.12;100.00
43071;BME280;36278;47.952;21.714;2023-05-07T01:58:46;100326.53;;;15.11;100.00
43071;BME280;36278;47.952;21.714;2023-05-07T02:01:13;100322.47;;;15.07;100.00
43071;BME280;36278;47.952;21.714;2023-05-07T02:03:39;100321.75;;;15.05;100.00
43071;BME280;36278;47.952;21.714;2023-05-07T02:06:05;100320.34;;;15.10;100.00
43071;BME280;36278;47.952;21.714;2023-05-07T02:08:30;100310.81;;;14.98;100.00
43071;BME280;36278;47.952;21.714;2023-05-07T02:10:56;100316.88;;;15.00;100.00
43071;BME280;36278;47.952;21.714;2023-05-07T02:13:21;100325.41;;;15.04;100.00
43071;BME280;36278;47.952;21.714;2023-05-07T02:15:48;100321.22;;;15.01;100.00
43071;BME280;36278;47.952;21.714;2023-05-07T02:18:16;100311.53;;;15.00;100.00
43071;BME280;36278;47.952;21.714;2023-05-07T02:20:42;100311.81;;;14.97;100.00
43071;BME280;36278;47.952;21.714;2023-05-07T02:23:07;100299.72;;;15.03;100.00
43071;BME280;36278;47.952;21.714;2023-05-07T02:25:33;100303.94;;;14.96;100.00
43071;BME280;36278;47.952;21.714;2023-05-07T02:27:59;100308.16;;;14.98;100.00
43071;BME280;36278;47.952;21.714;2023-05-07T02:30:25;100309.84;;;14.99;100.00
43071;BME280;36278;47.952;21.714;2023-05-07T02:32:51;100302.13;;;14.96;100.00
43071;BME280;36278;47.952;21.714;2023-05-07T02:35:16;100309.44;;;14.94;100.00
43071;BME280;36278;47.952;21.714;2023-05-07T02:37:42;100305.94;;;14.94;100.00
43071;BME280;36278;47.952;21.714;2023-05-07T02:40:08;100309.59;;;14.93;100.00
43071;BME280;36278;47.952;21.714;2023-05-07T02:42:34;100302.56;;;14.82;100.00
43071;BME280;36278;47.952;21.714;2023-05-07T02:44:59;100305.22;;;14.82;100.00
43071;BME280;36278;47.952;21.714;2023-05-07T02:47:25;100310.59;;;14.72;100.00
43071;BME280;36278;47.952;21.714;2023-05-07T02:49:54;100306.69;;;14.76;100.00
43071;BME280;36278;47.952;21.714;2023-05-07T02:52:20;100307.38;;;14.78;100.00
43071;BME280;36278;47.952;21.714;2023-05-07T02:54:46;100303.84;;;14.78;100.00
43071;BME280;36278;47.952;21.714;2023-05-07T02:57:11;100307.50;;;14.77;100.00
43071;BME280;36278;47.952;21.714;2023-05-07T02:59:37;100300.06;;;14.71;100.00
43071;BME280;36278;47.952;21.714;2023-05-07T03:02:02;100309.06;;;14.70;100.00
43071;BME280;36278;47.952;21.714;2023-05-07T03:04:27;100307.53;;;14.67;100.00
43071;BME280;36278;47.952;21.714;2023-05-07T03:06:53;100304.16;;;14.65;100.00
43071;BME280;36278;47.952;21.714;2023-05-07T03:09:18;100313.28;;;14.63;100.00
43071;BME280;36278;47.952;21.714;2023-05-07T03:11:44;100311.44;;;14.63;100.00
43071;BME280;36278;47.952;21.714;2023-05-07T03:14:10;100307.38;;;14.69;100.00
43071;BME280;36278;47.952;21.714;2023-05-07T03:16:35;100307.81;;;14.64;100.00
43071;BME280;36278;47.952;21.714;2023-05-07T03:19:00;100311.75;;;14.60;100.00
43071;BME280;36278;47.952;21.714;2023-05-07T03:21:26;100313.97;;;14.65;100.00
43071;BME280;36278;47.952;21.714;2023-05-07T03:23:52;100318.31;;;14.66;100.00
43071;BME280;36278;47.952;21.714;2023-05-07T03:26:17;100324.63;;;14.65;100.00
43071;BME280;36278;47.952;21.714;2023-05-07T03:28:42;100324.09;;;14.61;100.00
43071;BME280;36278;47.952;21.714;2023-05-07T03:31:08;100324.78;;;14.63;100.00
43071;BME280;36278;47.952;21.714;2023-05-07T03:33:34;100328.03;;;14.67;100.00
43071;BME280;36278;47.952;21.714;2023-05-07T03:36:00;100320.44;;;14.62;100.00
43071;BME280;36278;47.952;21.714;2023-05-07T03:38:26;100339.94;;;14.72;100.00
43071;BME280;36278;47.952;21.714;2023-05-07T03:40:51;100338.25;;;14.71;100.00
43071;BME280;36278;47.952;21.714;2023-05-07T03:43:17;100343.56;;;14.71;100.00
43071;BME280;36278;47.952;21.714;2023-05-07T03:45:42;100345.41;;;14.71;100.00
43071;BME280;36278;47.952;21.714;2023-05-07T03:48:07;100350.31;;;14.75;100.00
43071;BME280;36278;47.952;21.714;2023-05-07T03:50:33;100348.19;;;14.79;100.00
43071;BME280;36278;47.952;21.714;2023-05-07T03:52:58;100352.97;;;14.85;100.00
43071;BME280;36278;47.952;21.714;2023-05-07T03:55:24;100345.81;;;14.85;100.00
43071;BME280;36278;47.952;21.714;2023-05-07T03:57:50;100354.63;;;14.96;100.00
43071;BME280;36278;47.952;21.714;2023-05-07T04:00:16;100351.81;;;14.97;100.00
43071;BME280;36278;47.952;21.714;2023-05-07T04:02:41;100346.47;;;14.97;100.00
43071;BME280;36278;47.952;21.714;2023-05-07T04:05:07;100352.66;;;14.98;100.00
43071;BME280;36278;47.952;21.714;2023-05-07T04:07:33;100359.69;;;14.99;100.00
43071;BME280;36278;47.952;21.714;2023-05-07T04:09:58;100364.88;;;15.00;100.00
43071;BME280;36278;47.952;21.714;2023-05-07T04:12:23;100367.56;;;14.91;100.00
43071;BME280;36278;47.952;21.714;2023-05-07T04:14:49;100377.09;;;14.93;100.00
43071;BME280;36278;47.952;21.714;2023-05-07T04:17:15;100372.91;;;14.91;100.00
43071;BME280;36278;47.952;21.714;2023-05-07T04:19:40;100373.03;;;14.89;100.00
43071;BME280;36278;47.952;21.714;2023-05-07T04:22:10;100374.72;;;14.90;100.00
43071;BME280;36278;47.952;21.714;2023-05-07T04:24:36;100371.34;;;14.88;100.00
43071;BME280;36278;47.952;21.714;2023-05-07T04:27:01;100367.31;;;14.84;100.00
43071;BME280;36278;47.952;21.714;2023-05-07T04:29:27;100379.22;;;14.80;100.00
43071;BME280;36278;47.952;21.714;2023-05-07T04:31:53;100388.22;;;14.79;100.00
43071;BME280;36278;47.952;21.714;2023-05-07T04:34:20;100383.31;;;14.84;100.00
43071;BME280;36278;47.952;21.714;2023-05-07T04:36:46;100388.63;;;14.84;100.00
43071;BME280;36278;47.952;21.714;2023-05-07T04:39:11;100380.03;;;14.90;100.00
43071;BME280;36278;47.952;21.714;2023-05-07T04:41:37;100383.28;;;14.94;100.00
43071;BME280;36278;47.952;21.714;2023-05-07T04:44:03;100386.38;;;14.99;100.00
43071;BME280;36278;47.952;21.714;2023-05-07T04:46:30;100387.94;;;14.92;100.00
43071;BME280;36278;47.952;21.714;2023-05-07T04:48:55;100403.50;;;14.96;100.00
43071;BME280;36278;47.952;21.714;2023-05-07T04:51:21;100395.22;;;14.99;100.00
43071;BME280;36278;47.952;21.714;2023-05-07T04:53:47;100409.41;;;15.00;100.00
43071;BME280;36278;47.952;21.714;2023-05-07T04:56:12;100416.97;;;15.04;100.00
43071;BME280;36278;47.952;21.714;2023-05-07T04:58:38;100418.53;;;15.07;100.00
43071;BME280;36278;47.952;21.714;2023-05-07T05:01:03;100414.72;;;15.09;100.00
43071;BME280;36278;47.952;21.714;2023-05-07T05:03:29;100414.88;;;15.08;100.00
43071;BME280;36278;47.952;21.714;2023-05-07T05:05:55;100422.88;;;15.08;100.00
43071;BME280;36278;47.952;21.714;2023-05-07T05:08:22;100423.56;;;15.10;100.00
43071;BME280;36278;47.952;21.714;2023-05-07T05:10:47;100415.25;;;15.13;100.00
43071;BME280;36278;47.952;21.714;2023-05-07T05:13:15;100427.75;;;15.12;100.00
43071;BME280;36278;47.952;21.714;2023-05-07T05:15:40;100435.50;;;15.16;100.00
43071;BME280;36278;47.952;21.714;2023-05-07T05:18:06;100434.34;;;15.28;100.00
43071;BME280;36278;47.952;21.714;2023-05-07T05:20:31;100431.66;;;15.28;100.00
43071;BME280;36278;47.952;21.714;2023-05-07T05:22:57;100441.22;;;15.30;100.00
43071;BME280;36278;47.952;21.714;2023-05-07T05:25:22;100431.97;;;15.25;100.00
43071;BME280;36278;47.952;21.714;2023-05-07T05:27:48;100434.91;;;15.31;100.00
43071;BME280;36278;47.952;21.714;2023-05-07T05:30:13;100439.34;;;15.50;100.00
43071;BME280;36278;47.952;21.714;2023-05-07T05:32:39;100432.88;;;15.72;100.00
43071;BME280;36278;47.952;21.714;2023-05-07T05:35:05;100431.25;;;15.89;100.00
43071;BME280;36278;47.952;21.714;2023-05-07T05:37:31;100433.72;;;16.00;100.00
43071;BME280;36278;47.952;21.714;2023-05-07T05:39:57;100440.31;;;15.96;100.00
43071;BME280;36278;47.952;21.714;2023-05-07T05:42:23;100439.75;;;16.02;100.00
43071;BME280;36278;47.952;21.714;2023-05-07T05:44:48;100443.91;;;16.14;100.00
43071;BME280;36278;47.952;21.714;2023-05-07T05:47:14;100435.19;;;16.12;100.00
43071;BME280;36278;47.952;21.714;2023-05-07T05:49:40;100449.13;;;16.34;100.00
43071;BME280;36278;47.952;21.714;2023-05-07T05:52:05;100454.72;;;16.40;100.00
43071;BME280;36278;47.952;21.714;2023-05-07T05:54:31;100451.06;;;16.41;100.00
43071;BME280;36278;47.952;21.714;2023-05-07T05:56:56;100455.38;;;16.24;100.00
43071;BME280;36278;47.952;21.714;2023-05-07T05:59:22;100451.78;;;16.16;100.00
43071;BME280;36278;47.952;21.714;2023-05-07T06:01:48;100455.22;;;16.26;100.00
43071;BME280;36278;47.952;21.714;2023-05-07T06:04:13;100446.56;;;16.42;100.00
43071;BME280;36278;47.952;21.714;2023-05-07T06:06:39;100450.53;;;16.38;100.00
43071;BME280;36278;47.952;21.714;2023-05-07T06:09:04;100445.31;;;16.36;98.41
43071;BME280;36278;47.952;21.714;2023-05-07T06:11:29;100446.72;;;16.58;98.13
43071;BME280;36278;47.952;21.714;2023-05-07T06:13:56;100452.94;;;16.76;97.96
43071;BME280;36278;47.952;21.714;2023-05-07T06:16:21;100448.75;;;16.74;91.17
43071;BME280;36278;47.952;21.714;2023-05-07T06:18:47;100456.25;;;16.70;92.00
43071;BME280;36278;47.952;21.714;2023-05-07T06:21:13;100443.97;;;16.68;92.36
43071;BME280;36278;47.952;21.714;2023-05-07T06:23:39;100448.13;;;16.62;87.03
43071;BME280;36278;47.952;21.714;2023-05-07T06:26:06;100453.47;;;16.62;89.55
43071;BME280;36278;47.952;21.714;2023-05-07T06:28:31;100454.75;;;16.58;88.75
43071;BME280;36278;47.952;21.714;2023-05-07T06:31:18;100454.69;;;16.68;91.01
43071;BME280;36278;47.952;21.714;2023-05-07T06:33:45;100448.81;;;16.64;88.48
43071;BME280;36278;47.952;21.714;2023-05-07T06:36:11;100448.34;;;16.69;87.24
43071;BME280;36278;47.952;21.714;2023-05-07T06:38:36;100454.94;;;16.74;89.29
43071;BME280;36278;47.952;21.714;2023-05-07T06:41:02;100456.50;;;16.67;87.73
43071;BME280;36278;47.952;21.714;2023-05-07T06:43:27;100463.22;;;16.81;87.11
43071;BME280;36278;47.952;21.714;2023-05-07T06:45:53;100454.84;;;16.66;88.58
43071;BME280;36278;47.952;21.714;2023-05-07T06:48:18;100453.09;;;16.75;89.18
43071;BME280;36278;47.952;21.714;2023-05-07T06:50:44;100457.84;;;16.99;88.48
43071;BME280;36278;47.952;21.714;2023-05-07T06:53:09;100453.47;;;17.16;89.31
43071;BME280;36278;47.952;21.714;2023-05-07T06:55:34;100446.53;;;17.05;87.72
43071;BME280;36278;47.952;21.714;2023-05-07T06:58:00;100452.34;;;17.00;90.06
43071;BME280;36278;47.952;21.714;2023-05-07T07:00:29;100451.50;;;17.00;89.96
43071;BME280;36278;47.952;21.714;2023-05-07T07:02:56;100461.91;;;16.85;90.50
43071;BME280;36278;47.952;21.714;2023-05-07T07:05:21;100462.22;;;16.82;92.43
43071;BME280;36278;47.952;21.714;2023-05-07T07:07:47;100458.50;;;16.65;92.75
43071;BME280;36278;47.952;21.714;2023-05-07T07:10:24;100462.78;;;16.58;92.85
43071;BME280;36278;47.952;21.714;2023-05-07T07:12:50;100461.78;;;16.59;95.35
43071;BME280;36278;47.952;21.714;2023-05-07T07:15:16;100464.00;;;16.64;94.75
43071;BME280;36278;47.952;21.714;2023-05-07T07:17:41;100475.63;;;16.54;94.49
43071;BME280;36278;47.952;21.714;2023-05-07T07:20:07;100475.38;;;16.48;93.83
43071;BME280;36278;47.952;21.714;2023-05-07T07:22:33;100478.41;;;16.53;96.54
43071;BME280;36278;47.952;21.714;2023-05-07T07:24:58;100481.66;;;16.57;96.93
43071;BME280;36278;47.952;21.714;2023-05-07T07:27:32;100483.66;;;16.54;96.19
43071;BME280;36278;47.952;21.714;2023-05-07T07:29:58;100486.84;;;16.58;95.68
43071;BME280;36278;47.952;21.714;2023-05-07T07:32:23;100483.41;;;16.66;94.81
43071;BME280;36278;47.952;21.714;2023-05-07T07:34:52;100491.88;;;16.61;92.18
43071;BME280;36278;47.952;21.714;2023-05-07T07:37:17;100498.53;;;16.57;93.49
43071;BME280;36278;47.952;21.714;2023-05-07T07:39:43;100488.44;;;16.51;95.29
43071;BME280;36278;47.952;21.714;2023-05-07T07:42:08;100496.69;;;16.58;93.55
43071;BME280;36278;47.952;21.714;2023-05-07T07:44:34;100493.34;;;16.56;92.54
43071;BME280;36278;47.952;21.714;2023-05-07T07:47:00;100498.97;;;16.52;91.69
43071;BME280;36278;47.952;21.714;2023-05-07T07:49:26;100502.28;;;16.37;92.72
43071;BME280;36278;47.952;21.714;2023-05-07T07:51:51;100501.50;;;16.26;94.86
43071;BME280;36278;47.952;21.714;2023-05-07T07:54:17;100496.00;;;16.28;93.56
43071;BME280;36278;47.952;21.714;2023-05-07T07:56:42;100499.25;;;16.32;95.82
43071;BME280;36278;47.952;21.714;2023-05-07T07:59:08;100501.22;;;16.57;93.88
43071;BME280;36278;47.952;21.714;2023-05-07T08:01:33;100493.09;;;16.76;92.64
43071;BME280;36278;47.952;21.714;2023-05-07T08:04:00;100505.78;;;16.92;91.81
43071;BME280;36278;47.952;21.714;2023-05-07T08:06:28;100502.19;;;17.01;91.51
43071;BME280;36278;47.952;21.714;2023-05-07T08:08:53;100504.09;;;17.09;91.66
43071;BME280;36278;47.952;21.714;2023-05-07T08:11:19;100504.34;;;17.16;90.17
43071;BME280;36278;47.952;21.714;2023-05-07T08:13:45;100499.59;;;17.27;92.12
43071;BME280;36278;47.952;21.714;2023-05-07T08:16:11;100498.81;;;17.35;89.13
43071;BME280;36278;47.952;21.714;2023-05-07T08:18:36;100492.69;;;17.25;88.43
43071;BME280;36278;47.952;21.714;2023-05-07T08:21:02;100493.97;;;17.38;89.14
43071;BME280;36278;47.952;21.714;2023-05-07T08:23:27;100491.25;;;17.30;88.34
43071;BME280;36278;47.952;21.714;2023-05-07T08:25:53;100496.50;;;17.40;88.86
43071;BME280;36278;47.952;21.714;2023-05-07T08:28:19;100489.44;;;17.83;86.36
43071;BME280;36278;47.952;21.714;2023-05-07T08:30:45;100483.16;;;18.26;85.26
43071;BME280;36278;47.952;21.714;2023-05-07T08:33:11;100487.56;;;18.43;86.33
43071;BME280;36278;47.952;21.714;2023-05-07T08:35:37;100479.69;;;18.42;87.03
43071;BME280;36278;47.952;21.714;2023-05-07T08:38:02;100477.34;;;18.55;84.93
43071;BME280;36278;47.952;21.714;2023-05-07T08:40:28;100470.91;;;18.74;84.61
43071;BME280;36278;47.952;21.714;2023-05-07T08:42:55;100459.84;;;19.10;79.13
43071;BME280;36278;47.952;21.714;2023-05-07T08:45:22;100471.25;;;19.36;79.12
43071;BME280;36278;47.952;21.714;2023-05-07T08:47:52;100470.75;;;19.49;78.83
43071;BME280;36278;47.952;21.714;2023-05-07T08:50:20;100470.59;;;19.34;77.87
43071;BME280;36278;47.952;21.714;2023-05-07T08:52:47;100472.78;;;19.47;79.22
43071;BME280;36278;47.952;21.714;2023-05-07T08:55:13;100472.25;;;18.78;79.90
43071;BME280;36278;47.952;21.714;2023-05-07T08:57:39;100473.44;;;19.00;81.11
43071;BME280;36278;47.952;21.714;2023-05-07T09:00:05;100476.63;;;19.03;83.45
43071;BME280;36278;47.952;21.714;2023-05-07T09:02:33;100477.97;;;18.83;79.69
43071;BME280;36278;47.952;21.714;2023-05-07T09:05:00;100475.25;;;18.67;78.03
43071;BME280;36278;47.952;21.714;2023-05-07T09:07:26;100468.91;;;18.92;81.13
43071;BME280;36278;47.952;21.714;2023-05-07T09:09:52;100467.56;;;19.37;78.29
43071;BME280;36278;47.952;21.714;2023-05-07T09:12:21;100459.41;;;19.94;76.24
43071;BME280;36278;47.952;21.714;2023-05-07T09:14:47;100462.44;;;20.38;73.46
43071;BME280;36278;47.952;21.714;2023-05-07T09:17:13;100457.22;;;20.45;72.39
43071;BME280;36278;47.952;21.714;2023-05-07T09:19:38;100467.41;;;20.10;75.92
43071;BME280;36278;47.952;21.714;2023-05-07T09:22:05;100470.75;;;19.65;77.08
43071;BME280;36278;47.952;21.714;2023-05-07T09:24:32;100467.06;;;19.50;77.49
43071;BME280;36278;47.952;21.714;2023-05-07T09:27:06;100464.84;;;19.45;76.75
43071;BME280;36278;47.952;21.714;2023-05-07T09:29:32;100465.22;;;19.26;79.72
43071;BME280;36278;47.952;21.714;2023-05-07T09:32:02;100465.06;;;19.27;77.57
43071;BME280;36278;47.952;21.714;2023-05-07T09:34:29;100462.03;;;19.47;77.71
43071;BME280;36278;47.952;21.714;2023-05-07T09:36:54;100460.69;;;19.35;78.45
43071;BME280;36278;47.952;21.714;2023-05-07T09:39:22;100463.38;;;19.35;79.83
43071;BME280;36278;47.952;21.714;2023-05-07T09:41:48;100456.81;;;19.13;81.72
43071;BME280;36278;47.952;21.714;2023-05-07T09:44:14;100470.59;;;19.26;80.58
43071;BME280;36278;47.952;21.714;2023-05-07T09:46:43;100461.16;;;19.46;77.21
43071;BME280;36278;47.952;21.714;2023-05-07T09:49:13;100465.47;;;19.96;77.17
43071;BME280;36278;47.952;21.714;2023-05-07T09:51:52;100455.19;;;20.47;73.17
43071;BME280;36278;47.952;21.714;2023-05-07T09:54:18;100449.34;;;20.66;72.73
43071;BME280;36278;47.952;21.714;2023-05-07T09:56:48;100454.25;;;20.86;72.13
43071;BME280;36278;47.952;21.714;2023-05-07T09:59:15;100458.97;;;20.84;70.95
43071;BME280;36278;47.952;21.714;2023-05-07T10:01:42;100461.63;;;20.69;71.67
43071;BME280;36278;47.952;21.714;2023-05-07T10:04:09;100457.31;;;20.52;69.34
43071;BME280;36278;47.952;21.714;2023-05-07T10:06:35;100456.94;;;20.63;69.81
43071;BME280;36278;47.952;21.714;2023-05-07T10:09:02;100451.44;;;21.02;71.31
43071;BME280;36278;47.952;21.714;2023-05-07T10:11:28;100452.88;;;21.36;66.97
43071;BME280;36278;47.952;21.714;2023-05-07T10:13:54;100454.38;;;21.53;67.68
43071;BME280;36278;47.952;21.714;2023-05-07T10:16:20;100447.97;;;21.54;67.14
43071;BME280;36278;47.952;21.714;2023-05-07T10:18:46;100439.13;;;21.22;67.43
43071;BME280;36278;47.952;21.714;2023-05-07T10:21:21;100439.97;;;21.23;68.20
43071;BME280;36278;47.952;21.714;2023-05-07T10:23:56;100450.19;;;21.36;67.46
43071;BME280;36278;47.952;21.714;2023-05-07T10:26:23;100441.56;;;21.55;65.69
43071;BME280;36278;47.952;21.714;2023-05-07T10:29:04;100452.34;;;21.70;66.18
43071;BME280;36278;47.952;21.714;2023-05-07T10:33:56;100445.16;;;22.06;64.38
43071;BME280;36278;47.952;21.714;2023-05-07T10:36:23;100438.84;;;21.55;67.23
43071;BME280;36278;47.952;21.714;2023-05-07T10:38:49;100428.06;;;21.55;68.51
43071;BME280;36278;47.952;21.714;2023-05-07T10:41:15;100429.75;;;21.71;64.72
43071;BME280;36278;47.952;21.714;2023-05-07T10:43:45;100425.66;;;21.60;66.43
43071;BME280;36278;47.952;21.714;2023-05-07T10:46:19;100438.72;;;21.34;67.22
43071;BME280;36278;47.952;21.714;2023-05-07T10:51:26;100437.16;;;20.79;66.69
43071;BME280;36278;47.952;21.714;2023-05-07T10:56:41;100434.53;;;21.08;67.16
43071;BME280;36278;47.952;21.714;2023-05-07T11:02:18;100423.63;;;21.62;63.31
43071;BME280;36278;47.952;21.714;2023-05-07T11:04:44;100419.53;;;21.81;62.51
43071;BME280;36278;47.952;21.714;2023-05-07T11:07:24;100426.69;;;21.74;60.03
43071;BME280;36278;47.952;21.714;2023-05-07T11:15:13;100413.25;;;23.04;55.41
43071;BME280;36278;47.952;21.714;2023-05-07T11:17:57;100412.72;;;23.64;56.32
43071;BME280;36278;47.952;21.714;2023-05-07T11:26:07;100416.19;;;23.30;54.00
43071;BME280;36278;47.952;21.714;2023-05-07T11:28:39;100406.34;;;23.50;55.91
43071;BME280;36278;47.952;21.714;2023-05-07T11:31:04;100403.09;;;24.44;53.32
43071;BME280;36278;47.952;21.714;2023-05-07T11:33:31;100402.09;;;24.52;52.02
43071;BME280;36278;47.952;21.714;2023-05-07T11:35:59;100407.41;;;23.84;55.34
43071;BME280;36278;47.952;21.714;2023-05-07T11:38:25;100397.00;;;24.29;55.24
43071;BME280;36278;47.952;21.714;2023-05-07T11:40:58;100394.44;;;24.14;52.96
43071;BME280;36278;47.952;21.714;2023-05-07T11:43:26;100395.59;;;24.46;53.07
43071;BME280;36278;47.952;21.714;2023-05-07T11:45:52;100400.66;;;24.82;50.89
43071;BME280;36278;47.952;21.714;2023-05-07T11:48:18;100401.09;;;24.86;51.01
43071;BME280;36278;47.952;21.714;2023-05-07T11:53:27;100406.72;;;24.98;47.78
43071;BME280;36278;47.952;21.714;2023-05-07T11:55:56;100399.81;;;25.61;46.33
43071;BME280;36278;47.952;21.714;2023-05-07T11:58:23;100393.69;;;26.37;44.55
43071;BME280;36278;47.952;21.714;2023-05-07T12:00:50;100392.25;;;26.73;45.59
43071;BME280;36278;47.952;21.714;2023-05-07T12:03:16;100385.69;;;26.56;45.01
43071;BME280;36278;47.952;21.714;2023-05-07T12:05:43;100380.63;;;26.59;45.10
43071;BME280;36278;47.952;21.714;2023-05-07T12:08:13;100387.88;;;26.72;43.12
43071;BME280;36278;47.952;21.714;2023-05-07T12:10:41;100381.50;;;27.78;42.58
43071;BME280;36278;47.952;21.714;2023-05-07T12:13:26;100373.03;;;28.16;41.58
43071;BME280;36278;47.952;21.714;2023-05-07T12:15:52;100371.63;;;27.40;42.96
43071;BME280;36278;47.952;21.714;2023-05-07T12:18:18;100385.19;;;26.65;44.02
43071;BME280;36278;47.952;21.714;2023-05-07T12:20:45;100377.56;;;25.97;42.67
43071;BME280;36278;47.952;21.714;2023-05-07T12:23:11;100378.72;;;26.21;42.64
43071;BME280;36278;47.952;21.714;2023-05-07T12:25:40;100372.72;;;26.82;43.30
43071;BME280;36278;47.952;21.714;2023-05-07T12:28:13;100370.84;;;27.51;41.19
43071;BME280;36278;47.952;21.714;2023-05-07T12:30:42;100362.28;;;28.21;40.05
43071;BME280;36278;47.952;21.714;2023-05-07T12:33:08;100368.59;;;28.93;38.95
43071;BME280;36278;47.952;21.714;2023-05-07T12:35:39;100370.84;;;28.96;39.47
43071;BME280;36278;47.952;21.714;2023-05-07T12:38:09;100363.03;;;28.28;39.52
43071;BME280;36278;47.952;21.714;2023-05-07T12:40:42;100363.84;;;27.99;39.33
43071;BME280;36278;47.952;21.714;2023-05-07T12:43:14;100371.44;;;28.27;40.08
43071;BME280;36278;47.952;21.714;2023-05-07T12:45:41;100372.09;;;27.55;39.57
43071;BME280;36278;47.952;21.714;2023-05-07T12:48:09;100367.34;;;26.76;41.71
43071;BME280;36278;47.952;21.714;2023-05-07T12:50:35;100376.53;;;26.50;42.93
43071;BME280;36278;47.952;21.714;2023-05-07T12:53:03;100372.31;;;26.09;44.41
43071;BME280;36278;47.952;21.714;2023-05-07T12:55:31;100373.69;;;25.80;44.98
43071;BME280;36278;47.952;21.714;2023-05-07T12:58:00;100375.66;;;27.13;42.19